Time;durP1;ratioP1;P1;durP2;ratioP2;P2;SDS_P1;SDS_P2;PMS_P1;PMS_P2;Temp;Humidity;BMP_temperature;BMP_pressure;BME280_temperature;BME280_humidity;BME280_pressure;Samples;Min_cycle;Max_cycle;Signal;HPM_P1;HPM_P2
2021/04/06 04:01:11;;;;;;;16.90;11.97;;;;;;;4.38;73.11;93415.72;833528;71;30248;-76
2021/04/06 04:16:16;;;;;;;15.53;11.85;;;;;;;5.30;71.68;93434.66;833143;71;32812;-76
2021/04/06 04:31:11;;;;;;;16.20;12.63;;;;;;;7.58;66.40;93437.23;834263;71;30931;-76
2021/04/06 04:46:15;;;;;;;22.00;16.42;;;;;;;9.59;60.84;93428.48;828207;71;33204;-76
2021/04/06 05:01:07;;;;;;;22.67;16.90;;;;;;;;;;835297;71;29723;-79
2021/04/06 05:16:19;;;;;;;20.25;15.93;;;;;;;13.46;50.12;93413.55;827202;71;33194;-75
2021/04/06 05:31:08;;;;;;;18.30;15.90;;;;;;;14.91;45.51;93407.23;828383;71;29687;-75
2021/04/06 05:46:37;;;;;;;18.42;16.17;;;;;;;15.89;42.45;93388.96;828511;71;32872;-76
2021/04/06 06:01:15;;;;;;;17.05;14.25;;;;;;;16.32;41.11;93391.88;826513;71;32732;-75
2021/04/06 06:16:25;;;;;;;19.10;15.18;;;;;;;16.26;40.94;93373.42;833072;71;32768;-79
2021/04/06 06:31:46;;;;;;;17.25;13.48;;;;;;;16.60;39.88;93366.98;810141;72;32908;-79
2021/04/06 06:46:30;;;;;;;15.23;13.08;;;;;;;16.69;39.29;93362.23;834374;71;33227;-76
2021/04/06 07:01:28;;;;;;;14.95;12.47;;;;;;;15.56;41.11;93339.92;827569;71;30296;-78
2021/04/06 07:16:12;;;;;;;13.55;12.15;;;;;;;15.73;41.05;93342.17;827742;71;30286;-76
2021/04/06 07:31:16;;;;;;;11.75;10.30;;;;;;;16.16;40.93;93329.76;833216;71;32802;-76
2021/04/06 07:46:09;;;;;;;13.93;10.80;;;;;;;15.89;40.82;93314.89;833598;71;30732;-76
2021/04/06 08:01:09;;;;;;;14.43;12.00;;;;;;;17.23;38.87;93299.43;828177;71;30417;-77
2021/04/06 08:16:21;;;;;;;12.55;11.08;;;;;;;17.05;39.38;93277.98;826637;71;32741;-76
2021/04/06 08:31:19;;;;;;;13.55;11.20;;;;;;;17.08;39.04;93255.31;833675;71;32738;-78
2021/04/06 08:46:42;;;;;;;11.40;10.20;;;;;;;17.58;39.32;93226.18;816621;70;33073;-78
2021/04/06 09:01:43;;;;;;;13.08;11.68;;;;;;;18.65;37.41;93206.23;833594;71;30869;-77
2021/04/06 09:16:22;;;;;;;12.93;11.38;;;;;;;18.22;37.50;93198.72;826851;71;33206;-77
2021/04/06 09:31:15;;;;;;;11.05;9.73;;;;;;;18.27;38.15;93171.84;826901;71;33288;-77
2021/04/06 09:46:15;;;;;;;12.53;9.93;;;;;;;19.34;36.16;93143.73;827035;71;32737;-77
2021/04/06 10:01:26;;;;;;;10.78;9.68;;;;;;;19.19;36.39;93127.52;833631;71;32750;-78
2021/04/06 10:16:13;;;;;;;11.43;9.25;;;;;;;18.74;37.75;93103.79;833452;71;30298;-80
2021/04/06 10:31:14;;;;;;;11.65;9.90;;;;;;;19.55;37.22;93049.87;827034;71;32692;-76
2021/04/06 10:46:16;;;;;;;11.20;9.35;;;;;;;19.78;37.13;93013.56;828902;71;32658;-77
2021/04/06 11:01:46;;;;;;;12.85;9.45;;;;;;;20.23;37.13;92981.13;830072;71;33367;-79
2021/04/06 11:16:16;;;;;;;9.10;8.20;;;;;;;20.63;35.19;92961.02;833648;71;32786;-77
2021/04/06 11:31:15;;;;;;;11.30;7.90;;;;;;;20.43;35.04;92922.07;833369;71;33535;-76
2021/04/06 11:46:09;;;;;;;8.03;7.20;;;;;;;20.39;35.34;92894.86;835734;71;30359;-77
2021/04/06 12:01:21;;;;;;;9.50;7.47;;;;;;;20.33;35.22;92880.43;833635;71;32749;-78
2021/04/06 12:16:15;;;;;;;9.20;6.90;;;;;;;19.67;34.78;92859.78;827635;71;32709;-77
2021/04/06 12:31:18;;;;;;;7.00;6.30;;;;;;;19.85;34.65;92835.80;827279;71;32726;-78
2021/04/06 12:46:09;;;;;;;6.78;5.90;;;;;;;19.19;35.11;92804.42;829942;71;29816;-77
2021/04/06 13:01:17;;;;;;;6.95;6.15;;;;;;;18.22;35.81;92781.30;833612;71;33557;-78
2021/04/06 13:16:14;;;;;;;8.80;6.40;;;;;;;17.94;36.94;92747.53;833379;71;32760;-79
2021/04/06 13:31:14;;;;;;;9.18;6.33;;;;;;;17.82;36.61;92717.33;828946;71;32750;-79
2021/04/06 13:46:20;;;;;;;7.87;6.40;;;;;;;17.18;40.52;92680.81;827075;71;32843;-78
2021/04/06 14:01:08;;;;;;;6.10;5.55;;;;;;;17.13;40.41;92683.81;828931;71;29782;-78
2021/04/06 14:16:16;;;;;;;5.60;4.83;;;;;;;17.31;40.71;92666.64;835723;71;32684;-79
2021/04/06 14:31:18;;;;;;;7.30;4.80;;;;;;;18.25;37.37;92698.03;828967;71;32754;-77
2021/04/06 14:46:18;;;;;;;5.12;4.62;;;;;;;18.76;36.66;92673.69;833572;71;33454;-76
2021/04/06 15:01:46;;;;;;;4.53;4.10;;;;;;;18.61;34.61;92667.66;825582;71;32521;-77
2021/04/06 15:16:10;;;;;;;5.45;3.90;;;;;;;18.22;34.48;92664.47;827830;71;29781;-76
2021/04/06 15:31:12;;;;;;;6.60;4.05;;;;;;;17.85;35.37;92669.42;833773;71;30808;-77
2021/04/06 15:46:19;;;;;;;4.42;4.00;;;;;;;17.63;36.57;92666.72;825309;71;32720;-76
2021/04/06 16:01:09;;;;;;;6.87;5.17;;;;;;;17.17;38.27;92676.64;828855;71;29726;-76
2021/04/06 16:16:10;;;;;;;7.80;5.85;;;;;;;16.79;38.72;92662.28;827321;71;30519;-74
2021/04/06 16:31:10;;;;;;;8.10;6.67;;;;;;;16.51;41.82;92687.30;815187;71;29875;-75
2021/04/06 16:46:15;;;;;;;10.70;8.00;;;;;;;16.02;43.72;92703.21;826964;71;32803;-75
2021/04/06 17:01:10;;;;;;;17.60;11.03;;;;;;;15.59;45.29;92700.70;828079;71;30773;-81
2021/04/06 17:16:56;;;;;;;15.78;13.00;;;;;;;14.76;50.39;92743.91;811908;72;33487;-80
2021/04/06 17:31:10;;;;;;;11.35;10.15;;;;;;;13.75;52.06;92787.17;820251;71;31167;-79
2021/04/06 17:46:18;;;;;;;11.97;9.60;;;;;;;13.31;52.89;92805.91;826599;71;32785;-80
2021/04/06 18:01:17;;;;;;;14.65;10.30;;;;;;;13.26;52.33;92852.80;801202;74;33353;-82
2021/04/06 18:16:10;;;;;;;10.55;9.45;;;;;;;13.04;51.38;92857.63;828086;71;31461;-81
2021/04/06 18:31:23;;;;;;;10.38;8.78;;;;;;;12.88;51.73;92889.80;827664;70;32715;-83
2021/04/06 19:01:19;;;;;;;12.82;9.70;;;;;;;12.74;55.22;92935.72;826953;71;32748;-81
2021/04/06 20:01:44;;;;;;;9.70;8.05;;;;;;;11.57;49.08;92997.17;794544;74;33178;-81
2021/04/06 21:16:15;;;;;;;17.92;10.72;;;;;;;;;;807744;72;32940;-80
2021/04/06 21:31:46;;;;;;;13.08;10.55;;;;;;;9.31;54.74;93011.84;808181;72;32928;-79
2021/04/06 21:46:55;;;;;;;11.38;10.13;;;;;;;9.09;54.79;92967.07;828716;71;27071;-80
2021/04/06 22:01:30;;;;;;;12.40;9.40;;;;;;;8.99;55.13;92945.41;833653;71;32796;-80
2021/04/06 22:16:20;;;;;;;10.58;9.48;;;;;;;8.98;55.36;92943.09;833824;71;32731;-79
2021/04/06 22:31:39;;;;;;;10.88;9.18;;;;;;;8.85;56.54;92960.55;809631;72;32775;-78
2021/04/06 22:46:11;;;;;;;9.68;8.45;;;;;;;8.95;55.31;92948.42;829430;71;31553;-82
2021/04/06 23:01:22;;;;;;;10.80;9.30;;;;;;;9.01;55.06;92928.09;835106;71;33157;-79
2021/04/06 23:16:21;;;;;;;10.15;9.13;;;;;;;8.98;54.85;92916.42;833538;71;32790;-80
2021/04/06 23:31:11;;;;;;;12.37;8.40;;;;;;;8.82;54.62;92889.28;829846;71;30081;-80
2021/04/06 23:46:46;;;;;;;11.55;10.35;;;;;;;8.59;55.18;92872.52;794469;74;33037;-81
